createdAt,value
2023-03-01T00:01:52.494Z,100.00
2023-03-01T00:04:20.819Z,100.00
2023-03-01T00:06:49.242Z,100.00
2023-03-01T00:09:18.469Z,100.00
2023-03-01T00:11:47.831Z,100.00
2023-03-01T00:14:17.363Z,100.00
2023-03-01T00:16:48.175Z,100.00
2023-03-01T00:19:18.348Z,100.00
2023-03-01T00:21:46.957Z,100.00
2023-03-01T00:24:15.207Z,100.00
2023-03-01T00:26:43.931Z,100.00
2023-03-01T00:29:12.176Z,100.00
2023-03-01T00:31:40.375Z,100.00
2023-03-01T00:34:10.193Z,100.00
2023-03-01T00:36:39.640Z,100.00
2023-03-01T00:39:12.138Z,100.00
2023-03-01T00:41:41.180Z,100.00
2023-03-01T00:44:09.440Z,100.00
2023-03-01T00:46:38.183Z,100.00
2023-03-01T00:49:09.419Z,100.00
2023-03-01T00:51:40.542Z,100.00
2023-03-01T00:54:10.593Z,100.00
2023-03-01T00:56:38.835Z,100.00
2023-03-01T00:59:07.214Z,100.00
2023-03-01T01:01:35.418Z,100.00
2023-03-01T01:04:06.341Z,100.00
2023-03-01T01:06:36.852Z,100.00
2023-03-01T01:09:09.370Z,100.00
2023-03-01T01:11:38.507Z,100.00
2023-03-01T01:14:07.037Z,100.00
2023-03-01T01:16:36.221Z,100.00
2023-03-01T01:19:04.614Z,100.00
2023-03-01T01:21:33.740Z,100.00
2023-03-01T01:24:02.456Z,100.00
2023-03-01T01:26:34.312Z,100.00
2023-03-01T01:29:05.077Z,100.00
2023-03-01T01:31:34.819Z,100.00
2023-03-01T01:34:04.466Z,100.00
2023-03-01T01:36:33.107Z,100.00
2023-03-01T01:39:02.038Z,100.00
2023-03-01T01:41:32.550Z,100.00
2023-03-01T01:44:15.954Z,100.00
2023-03-01T01:46:46.871Z,100.00
2023-03-01T01:49:34.208Z,100.00
2023-03-01T01:52:11.820Z,100.00
2023-03-01T01:54:48.982Z,100.00
2023-03-01T01:57:22.115Z,100.00
2023-03-01T01:59:55.132Z,100.00
2023-03-01T02:02:28.217Z,100.00
2023-03-01T02:05:06.113Z,100.00
2023-03-01T02:07:35.607Z,100.00
2023-03-01T02:10:06.138Z,100.00
2023-03-01T02:12:40.697Z,100.00
2023-03-01T02:15:10.379Z,100.00
2023-03-01T02:17:39.848Z,100.00
2023-03-01T02:20:27.860Z,100.00
2023-03-01T02:22:57.092Z,100.00
2023-03-01T02:25:38.475Z,100.00
2023-03-01T02:28:15.203Z,100.00
2023-03-01T02:31:00.269Z,100.00
2023-03-01T02:33:29.785Z,100.00
2023-03-01T02:35:59.995Z,100.00
2023-03-01T02:38:28.878Z,100.00
2023-03-01T02:40:59.070Z,100.00
2023-03-01T02:43:35.347Z,100.00
2023-03-01T02:46:08.798Z,100.00
2023-03-01T02:48:46.013Z,100.00
2023-03-01T02:51:30.069Z,100.00
2023-03-01T02:54:09.764Z,100.00
2023-03-01T02:56:39.312Z,100.00
2023-03-01T02:59:08.061Z,100.00
2023-03-01T03:01:40.937Z,100.00
2023-03-01T03:04:11.429Z,100.00
2023-03-01T03:06:40.062Z,100.00
2023-03-01T03:09:09.171Z,100.00
2023-03-01T03:11:40.359Z,100.00
2023-03-01T03:14:13.719Z,100.00
2023-03-01T03:16:45.924Z,100.00
2023-03-01T03:19:14.663Z,100.00
2023-03-01T03:21:42.788Z,100.00
2023-03-01T03:24:10.957Z,100.00
2023-03-01T03:26:39.579Z,100.00
2023-03-01T03:29:11.192Z,100.00
2023-03-01T03:31:39.530Z,100.00
2023-03-01T03:34:12.004Z,100.00
2023-03-01T03:36:40.337Z,100.00
2023-03-01T03:39:08.938Z,100.00
2023-03-01T03:41:37.300Z,100.00
2023-03-01T03:44:05.618Z,100.00
2023-03-01T03:46:33.991Z,100.00
2023-03-01T03:49:02.382Z,100.00
2023-03-01T03:51:32.054Z,100.00
2023-03-01T03:54:00.269Z,100.00
2023-03-01T03:56:29.105Z,100.00
2023-03-01T03:58:57.388Z,100.00
2023-03-01T04:01:25.797Z,100.00
2023-03-01T04:03:55.583Z,100.00
2023-03-01T04:06:24.517Z,100.00
2023-03-01T04:08:59.554Z,100.00
2023-03-01T04:11:28.218Z,100.00
2023-03-01T04:13:58.422Z,100.00
2023-03-01T04:16:26.979Z,100.00
2023-03-01T04:18:55.856Z,100.00
2023-03-01T04:21:24.420Z,100.00
2023-03-01T04:23:55.128Z,100.00
2023-03-01T04:26:23.451Z,100.00
2023-03-01T04:28:51.810Z,100.00
2023-03-01T04:31:22.651Z,100.00
2023-03-01T04:33:54.204Z,100.00
2023-03-01T04:36:25.364Z,100.00
2023-03-01T04:38:57.530Z,100.00
2023-03-01T04:41:27.684Z,100.00
2023-03-01T04:43:57.003Z,100.00
2023-03-01T04:46:26.530Z,100.00
2023-03-01T04:48:54.953Z,100.00
2023-03-01T04:51:23.111Z,100.00
2023-03-01T04:53:54.873Z,100.00
2023-03-01T04:56:24.980Z,100.00
2023-03-01T04:58:56.943Z,100.00
2023-03-01T05:01:25.350Z,100.00
2023-03-01T05:03:54.183Z,100.00
2023-03-01T05:06:22.914Z,100.00
2023-03-01T05:08:58.056Z,100.00
2023-03-01T05:11:33.039Z,100.00
2023-03-01T05:14:01.463Z,100.00
2023-03-01T05:16:33.548Z,100.00
2023-03-01T05:19:12.445Z,100.00
2023-03-01T05:22:01.883Z,100.00
2023-03-01T05:24:31.033Z,100.00
2023-03-01T05:27:01.254Z,100.00
2023-03-01T05:29:31.075Z,100.00
2023-03-01T05:32:02.066Z,100.00
2023-03-01T05:34:32.829Z,100.00
2023-03-01T05:37:01.475Z,100.00
2023-03-01T05:39:32.647Z,100.00
2023-03-01T05:42:03.484Z,100.00
2023-03-01T05:44:31.900Z,100.00
2023-03-01T05:47:03.019Z,100.00
2023-03-01T05:49:31.285Z,100.00
2023-03-01T05:51:59.553Z,100.00
2023-03-01T05:54:28.116Z,100.00
2023-03-01T05:56:57.353Z,100.00
2023-03-01T05:59:27.046Z,100.00
2023-03-01T06:01:55.675Z,100.00
2023-03-01T06:04:23.878Z,100.00
2023-03-01T06:06:53.809Z,100.00
2023-03-01T06:09:23.282Z,100.00
2023-03-01T06:11:54.119Z,100.00
2023-03-01T06:14:22.452Z,100.00
2023-03-01T06:16:52.937Z,100.00
2023-03-01T06:19:21.169Z,100.00
2023-03-01T06:21:49.536Z,100.00
2023-03-01T06:24:17.833Z,100.00
2023-03-01T06:26:46.046Z,100.00
2023-03-01T06:29:15.829Z,100.00
2023-03-01T06:31:44.109Z,100.00
2023-03-01T06:34:14.674Z,100.00
2023-03-01T06:36:43.102Z,100.00
2023-03-01T06:39:11.375Z,100.00
2023-03-01T06:41:43.084Z,100.00
2023-03-01T06:44:11.423Z,100.00
2023-03-01T06:46:40.908Z,100.00
2023-03-01T06:49:10.557Z,100.00
2023-03-01T06:51:40.359Z,100.00
2023-03-01T06:54:08.899Z,100.00
2023-03-01T06:56:37.488Z,100.00
2023-03-01T06:59:06.043Z,100.00
2023-03-01T07:01:34.419Z,100.00
2023-03-01T07:04:02.770Z,100.00
2023-03-01T07:06:31.354Z,100.00
2023-03-01T07:09:01.316Z,100.00
2023-03-01T07:11:29.763Z,100.00
2023-03-01T07:13:59.462Z,100.00
2023-03-01T07:16:27.816Z,100.00
2023-03-01T07:18:57.214Z,100.00
2023-03-01T07:21:26.507Z,100.00
2023-03-01T07:23:55.139Z,100.00
2023-03-01T07:26:26.248Z,100.00
2023-03-01T07:28:54.585Z,100.00
2023-03-01T07:31:22.935Z,100.00
2023-03-01T07:33:51.166Z,100.00
2023-03-01T07:36:19.404Z,100.00
2023-03-01T07:38:47.851Z,100.00
2023-03-01T07:41:16.405Z,100.00
2023-03-01T07:43:46.468Z,100.00
2023-03-01T07:46:14.800Z,100.00
2023-03-01T07:48:43.488Z,100.00
2023-03-01T07:51:12.637Z,100.00
2023-03-01T07:53:41.070Z,100.00
2023-03-01T07:56:10.932Z,100.00
2023-03-01T07:58:40.705Z,100.00
2023-03-01T08:01:12.404Z,100.00
2023-03-01T08:03:44.727Z,100.00
2023-03-01T08:06:14.960Z,100.00
2023-03-01T08:08:43.442Z,100.00
2023-03-01T08:11:14.601Z,100.00
2023-03-01T08:13:43.314Z,100.00
2023-03-01T08:16:16.379Z,100.00
2023-03-01T08:18:47.707Z,100.00
2023-03-01T08:21:17.666Z,100.00
2023-03-01T08:23:46.103Z,100.00
2023-03-01T08:26:17.897Z,100.00
2023-03-01T08:28:46.437Z,99.07
2023-03-01T08:31:22.179Z,99.04
2023-03-01T08:33:56.234Z,97.03
2023-03-01T08:36:25.809Z,97.61
2023-03-01T08:38:54.297Z,97.48
2023-03-01T08:41:23.623Z,96.78
2023-03-01T08:43:59.825Z,94.93
2023-03-01T08:46:31.196Z,93.18
2023-03-01T08:48:59.711Z,93.16
2023-03-01T08:51:30.236Z,92.28
2023-03-01T08:53:58.454Z,91.76
2023-03-01T08:56:26.795Z,91.87
2023-03-01T08:58:55.534Z,91.16
2023-03-01T09:01:23.692Z,89.95
2023-03-01T09:03:53.635Z,89.88
2023-03-01T09:06:22.117Z,89.99
2023-03-01T09:08:52.034Z,89.13
2023-03-01T09:11:22.700Z,89.28
2023-03-01T09:13:51.949Z,88.32
2023-03-01T09:16:22.882Z,88.00
2023-03-01T09:18:54.348Z,87.72
2023-03-01T09:21:39.150Z,87.68
2023-03-01T09:24:09.401Z,85.62
2023-03-01T09:26:37.754Z,86.04
2023-03-01T09:29:06.366Z,85.03
2023-03-01T09:31:34.582Z,84.85
2023-03-01T09:34:04.302Z,84.18
2023-03-01T09:36:33.079Z,84.49
2023-03-01T09:39:02.117Z,83.90
2023-03-01T09:41:46.000Z,83.91
2023-03-01T09:44:24.183Z,84.07
2023-03-01T09:46:53.419Z,83.22
2023-03-01T09:49:26.972Z,83.81
2023-03-01T09:52:02.735Z,83.93
2023-03-01T09:54:30.994Z,82.89
2023-03-01T09:57:08.455Z,82.85
2023-03-01T10:00:00.688Z,82.40
2023-03-01T10:02:39.941Z,80.35
2023-03-01T10:05:24.292Z,80.70
2023-03-01T10:08:02.694Z,80.64
2023-03-01T10:10:35.930Z,79.03
2023-03-01T10:13:13.580Z,79.77
2023-03-01T10:15:46.295Z,78.32
2023-03-01T10:18:19.517Z,78.11
2023-03-01T10:20:55.417Z,76.55
2023-03-01T10:23:26.071Z,77.92
2023-03-01T10:26:15.400Z,76.89
2023-03-01T10:28:53.544Z,77.11
2023-03-01T10:31:29.584Z,76.65
2023-03-01T10:34:00.179Z,76.79
2023-03-01T10:36:32.885Z,75.17
2023-03-01T10:39:01.832Z,75.57
2023-03-01T10:41:30.458Z,75.26
2023-03-01T10:44:01.309Z,75.21
2023-03-01T10:46:31.428Z,75.75
2023-03-01T10:49:16.210Z,74.40
2023-03-01T10:51:48.465Z,73.47
2023-03-01T10:54:20.543Z,73.00
2023-03-01T10:56:51.518Z,72.61
2023-03-01T10:59:28.789Z,73.74
2023-03-01T11:02:25.969Z,73.89
2023-03-01T11:05:03.289Z,73.06
2023-03-01T11:07:33.281Z,74.17
2023-03-01T11:10:01.775Z,73.62
2023-03-01T11:12:30.860Z,73.27
2023-03-01T11:14:59.816Z,72.94
2023-03-01T11:17:34.625Z,72.44
2023-03-01T11:20:19.298Z,72.43
2023-03-01T11:22:53.112Z,73.47
2023-03-01T11:25:25.897Z,73.49
2023-03-01T11:27:55.547Z,72.46
2023-03-01T11:30:26.747Z,72.47
2023-03-01T11:33:06.194Z,72.55
2023-03-01T11:35:38.708Z,73.33
2023-03-01T11:38:24.007Z,73.36
2023-03-01T11:40:59.698Z,72.37
2023-03-01T11:43:39.188Z,72.61
2023-03-01T11:46:46.996Z,73.15
2023-03-01T11:49:37.280Z,72.55
2023-03-01T11:52:18.490Z,73.35
2023-03-01T11:54:58.938Z,73.87
2023-03-01T11:57:45.224Z,73.13
2023-03-01T12:00:27.118Z,73.43
2023-03-01T12:03:15.207Z,74.45
2023-03-01T12:06:18.622Z,73.34
2023-03-01T12:09:09.275Z,72.91
2023-03-01T12:12:06.015Z,72.40
2023-03-01T12:14:58.001Z,72.08
2023-03-01T12:17:56.674Z,71.71
2023-03-01T12:20:32.949Z,71.20
2023-03-01T12:23:21.025Z,71.52
2023-03-01T12:25:54.645Z,71.58
2023-03-01T12:28:45.452Z,72.37
2023-03-01T12:31:46.031Z,72.48
2023-03-01T12:34:30.469Z,71.66
2023-03-01T12:37:13.731Z,72.71
2023-03-01T12:40:06.629Z,71.63
2023-03-01T12:42:42.872Z,70.42
2023-03-01T12:45:42.487Z,70.47
2023-03-01T12:48:30.757Z,69.40
2023-03-01T12:51:03.998Z,70.23
2023-03-01T12:53:34.556Z,70.23
2023-03-01T12:56:04.502Z,69.99
2023-03-01T12:58:48.829Z,70.08
2023-03-01T13:01:34.217Z,69.55
2023-03-01T13:04:17.040Z,69.55
2023-03-01T13:06:56.691Z,69.88
2023-03-01T13:09:32.833Z,70.23
2023-03-01T13:12:02.879Z,69.92
2023-03-01T13:14:48.082Z,70.66
2023-03-01T13:17:44.997Z,70.84
2023-03-01T13:20:19.081Z,71.20
2023-03-01T13:22:54.803Z,71.32
2023-03-01T13:25:27.668Z,70.79
2023-03-01T13:28:35.785Z,70.34
2023-03-01T13:31:06.417Z,69.95
2023-03-01T13:33:48.264Z,70.35
2023-03-01T13:36:50.123Z,70.55
2023-03-01T13:39:36.821Z,70.33
2023-03-01T13:42:05.216Z,70.29
2023-03-01T13:44:37.244Z,70.69
2023-03-01T13:47:18.580Z,70.00
2023-03-01T13:49:54.633Z,70.38
2023-03-01T13:52:40.446Z,69.42
2023-03-01T13:55:20.580Z,70.31
2023-03-01T13:57:54.914Z,70.75
2023-03-01T14:00:33.112Z,70.90
2023-03-01T14:03:17.312Z,71.23
2023-03-01T14:06:14.077Z,70.40
2023-03-01T14:08:45.248Z,70.04
2023-03-01T14:11:55.540Z,70.76
2023-03-01T14:14:40.074Z,69.61
2023-03-01T14:17:49.812Z,70.08
2023-03-01T14:20:22.642Z,69.41
2023-03-01T14:22:56.098Z,69.51
2023-03-01T14:25:27.245Z,70.46
2023-03-01T14:28:04.689Z,70.07
2023-03-01T14:30:38.916Z,69.53
2023-03-01T14:33:10.754Z,69.02
2023-03-01T14:35:40.074Z,69.16
2023-03-01T14:38:23.704Z,69.03
2023-03-01T14:40:58.079Z,68.52
2023-03-01T14:43:28.110Z,69.06
2023-03-01T14:45:56.334Z,69.24
2023-03-01T14:48:25.638Z,69.46
2023-03-01T14:50:54.112Z,70.05
2023-03-01T14:53:26.602Z,69.86
2023-03-01T14:55:56.926Z,69.26
2023-03-01T14:58:27.844Z,70.42
2023-03-01T15:00:59.093Z,71.25
2023-03-01T15:03:32.742Z,71.06
2023-03-01T15:06:02.445Z,70.70
2023-03-01T15:08:34.239Z,70.92
2023-03-01T15:11:09.129Z,71.22
2023-03-01T15:13:38.317Z,71.13
2023-03-01T15:16:13.369Z,70.56
2023-03-01T15:18:47.705Z,71.85
2023-03-01T15:21:21.761Z,71.39
2023-03-01T15:23:57.627Z,72.07
2023-03-01T15:26:30.093Z,72.03
2023-03-01T15:29:01.108Z,72.40
2023-03-01T15:31:32.344Z,73.15
2023-03-01T15:34:12.403Z,73.43
2023-03-01T15:36:44.912Z,73.18
2023-03-01T15:39:44.575Z,72.11
2023-03-01T15:42:17.774Z,72.29
2023-03-01T15:44:46.969Z,72.87
2023-03-01T15:47:28.302Z,72.21
2023-03-01T15:49:57.907Z,72.91
2023-03-01T15:52:30.577Z,73.09
2023-03-01T15:55:03.484Z,73.20
2023-03-01T15:57:31.708Z,72.96
2023-03-01T16:00:00.003Z,73.10
2023-03-01T16:02:28.561Z,73.63
2023-03-01T16:05:19.593Z,72.98
2023-03-01T16:07:49.298Z,74.52
2023-03-01T16:10:20.640Z,74.45
2023-03-01T16:12:50.719Z,74.36
2023-03-01T16:15:22.779Z,74.42
2023-03-01T16:17:51.375Z,74.90
2023-03-01T16:20:28.112Z,76.29
2023-03-01T16:22:58.939Z,75.48
2023-03-01T16:25:28.605Z,76.14
2023-03-01T16:27:59.550Z,76.31
2023-03-01T16:30:30.170Z,76.25
2023-03-01T16:32:59.524Z,76.64
2023-03-01T16:35:27.906Z,77.40
2023-03-01T16:37:56.886Z,77.23
2023-03-01T16:40:28.035Z,77.50
2023-03-01T16:43:02.249Z,77.99
2023-03-01T16:45:36.383Z,78.00
2023-03-01T16:48:05.102Z,79.05
2023-03-01T16:50:33.377Z,78.95
2023-03-01T16:53:13.213Z,79.67
2023-03-01T16:55:46.356Z,79.58
2023-03-01T16:58:17.767Z,80.25
2023-03-01T17:00:46.299Z,81.08
2023-03-01T17:03:14.931Z,80.26
2023-03-01T17:05:43.344Z,81.45
2023-03-01T17:08:11.594Z,81.85
2023-03-01T17:10:43.022Z,82.36
2023-03-01T17:13:12.145Z,82.04
2023-03-01T17:15:43.142Z,82.32
2023-03-01T17:18:11.941Z,82.74
2023-03-01T17:20:40.326Z,82.92
2023-03-01T17:23:08.574Z,82.77
2023-03-01T17:25:36.909Z,82.85
2023-03-01T17:28:05.705Z,83.36
2023-03-01T17:30:33.885Z,83.23
2023-03-01T17:33:04.047Z,84.00
2023-03-01T17:35:38.308Z,84.43
2023-03-01T17:38:07.492Z,84.53
2023-03-01T17:40:36.818Z,84.47
2023-03-01T17:43:05.056Z,84.46
2023-03-01T17:45:35.772Z,84.55
2023-03-01T17:48:05.993Z,85.12
2023-03-01T17:50:34.797Z,85.38
2023-03-01T17:53:07.626Z,85.13
2023-03-01T17:55:35.855Z,85.30
2023-03-01T17:58:04.130Z,86.16
2023-03-01T18:00:33.064Z,86.39
2023-03-01T18:03:01.371Z,87.01
2023-03-01T18:05:34.089Z,87.35
2023-03-01T18:08:02.449Z,88.13
2023-03-01T18:10:42.676Z,88.24
2023-03-01T18:13:14.855Z,88.65
2023-03-01T18:15:43.179Z,88.92
2023-03-01T18:18:11.441Z,88.67
2023-03-01T18:20:41.150Z,89.72
2023-03-01T18:23:09.387Z,90.11
2023-03-01T18:25:43.538Z,89.78
2023-03-01T18:28:12.114Z,89.97
2023-03-01T18:30:40.633Z,90.22
2023-03-01T18:33:08.929Z,90.33
2023-03-01T18:35:38.367Z,90.49
2023-03-01T18:38:08.114Z,90.75
2023-03-01T18:40:36.838Z,91.22
2023-03-01T18:43:05.034Z,90.90
2023-03-01T18:45:33.853Z,91.40
2023-03-01T18:48:02.572Z,91.48
2023-03-01T18:50:31.250Z,91.40
2023-03-01T18:52:59.687Z,91.65
2023-03-01T18:55:29.686Z,92.14
2023-03-01T18:57:57.930Z,92.03
2023-03-01T19:00:26.329Z,92.65
2023-03-01T19:02:54.753Z,92.69
2023-03-01T19:05:23.622Z,92.40
2023-03-01T19:07:52.462Z,93.29
2023-03-01T19:10:21.004Z,93.04
2023-03-01T19:12:50.687Z,93.09
2023-03-01T19:15:20.409Z,93.33
2023-03-01T19:17:48.803Z,94.12
2023-03-01T19:20:17.366Z,93.82
2023-03-01T19:22:45.565Z,93.96
2023-03-01T19:25:13.793Z,94.63
2023-03-01T19:27:42.463Z,94.36
2023-03-01T19:30:14.154Z,94.51
2023-03-01T19:32:42.830Z,94.74
2023-03-01T19:35:11.622Z,94.81
2023-03-01T19:37:40.377Z,95.00
2023-03-01T19:40:10.341Z,95.65
2023-03-01T19:42:38.718Z,95.88
2023-03-01T19:45:08.236Z,95.95
2023-03-01T19:47:37.932Z,96.46
2023-03-01T19:50:06.881Z,96.52
2023-03-01T19:52:35.079Z,96.50
2023-03-01T19:55:09.741Z,96.73
2023-03-01T19:57:38.339Z,97.78
2023-03-01T20:00:15.012Z,97.39
2023-03-01T20:02:44.843Z,97.29
2023-03-01T20:05:13.677Z,97.14
2023-03-01T20:07:43.410Z,97.32
2023-03-01T20:10:14.517Z,98.06
2023-03-01T20:12:44.306Z,98.24
2023-03-01T20:15:12.806Z,98.15
2023-03-01T20:17:41.018Z,98.21
2023-03-01T20:20:12.614Z,98.22
2023-03-01T20:22:41.528Z,98.95
2023-03-01T20:25:11.762Z,98.46
2023-03-01T20:27:40.025Z,98.04
2023-03-01T20:30:10.731Z,97.96
2023-03-01T20:32:39.014Z,98.16
2023-03-01T20:35:09.754Z,97.90
2023-03-01T20:37:39.584Z,97.83
2023-03-01T20:40:09.708Z,97.85
2023-03-01T20:42:37.966Z,97.88
2023-03-01T20:45:07.229Z,97.50
2023-03-01T20:47:35.417Z,97.97
2023-03-01T20:50:05.381Z,97.26
2023-03-01T20:52:42.192Z,98.13
2023-03-01T20:55:16.518Z,98.22
2023-03-01T20:57:44.892Z,97.97
2023-03-01T21:00:14.095Z,98.71
2023-03-01T21:02:42.610Z,98.76
2023-03-01T21:05:11.473Z,98.54
2023-03-01T21:07:39.666Z,98.48
2023-03-01T21:10:08.497Z,99.19
2023-03-01T21:12:38.929Z,98.88
2023-03-01T21:15:09.739Z,99.47
2023-03-01T21:17:39.385Z,99.15
2023-03-01T21:20:09.377Z,99.46
2023-03-01T21:22:37.711Z,99.38
2023-03-01T21:25:07.239Z,98.97
2023-03-01T21:27:39.432Z,99.46
2023-03-01T21:30:08.589Z,99.55
2023-03-01T21:32:37.053Z,99.81
2023-03-01T21:35:05.977Z,99.65
2023-03-01T21:37:34.520Z,99.92
2023-03-01T21:40:06.519Z,99.88
2023-03-01T21:42:35.152Z,99.64
2023-03-01T21:45:04.958Z,100.00
2023-03-01T21:47:33.657Z,100.00
2023-03-01T21:50:02.186Z,100.00
2023-03-01T21:52:35.659Z,100.00
2023-03-01T21:55:04.378Z,100.00
2023-03-01T21:57:43.862Z,100.00
2023-03-01T22:00:17.024Z,100.00
2023-03-01T22:02:45.535Z,100.00
2023-03-01T22:05:13.981Z,100.00
2023-03-01T22:07:42.523Z,100.00
2023-03-01T22:10:11.896Z,100.00
2023-03-01T22:12:41.604Z,100.00
2023-03-01T22:15:10.806Z,100.00
2023-03-01T22:17:40.770Z,100.00
2023-03-01T22:20:10.533Z,100.00
2023-03-01T22:22:39.378Z,100.00
2023-03-01T22:25:08.722Z,100.00
2023-03-01T22:27:40.505Z,100.00
2023-03-01T22:30:13.600Z,100.00
2023-03-01T22:32:45.856Z,99.61
2023-03-01T22:35:14.558Z,99.71
2023-03-01T22:37:43.034Z,99.57
2023-03-01T22:40:12.294Z,99.04
2023-03-01T22:42:40.606Z,99.52
2023-03-01T22:45:10.726Z,99.42
2023-03-01T22:47:39.413Z,99.32
2023-03-01T22:50:10.812Z,98.79
2023-03-01T22:52:39.860Z,98.84
2023-03-01T22:55:10.296Z,98.75
2023-03-01T22:57:41.872Z,98.81
2023-03-01T23:00:13.359Z,98.55
2023-03-01T23:02:41.861Z,98.32
2023-03-01T23:05:12.207Z,98.43
2023-03-01T23:07:40.696Z,97.99
2023-03-01T23:10:12.372Z,97.93
2023-03-01T23:12:41.054Z,97.75
2023-03-01T23:15:11.056Z,97.30
2023-03-01T23:17:42.856Z,97.32
2023-03-01T23:20:14.522Z,97.34
2023-03-01T23:22:43.044Z,97.50
2023-03-01T23:25:13.303Z,97.55
2023-03-01T23:27:42.211Z,97.37
2023-03-01T23:30:14.030Z,97.96
2023-03-01T23:32:42.401Z,97.94
2023-03-01T23:35:12.630Z,98.20
2023-03-01T23:37:41.571Z,98.11
2023-03-01T23:40:12.223Z,98.46
2023-03-01T23:42:40.633Z,98.43
2023-03-01T23:45:10.166Z,98.27
2023-03-01T23:47:39.024Z,98.49
2023-03-01T23:50:07.962Z,98.17
2023-03-01T23:52:41.741Z,98.27
2023-03-01T23:55:13.133Z,98.33
2023-03-01T23:57:41.360Z,98.31
